Station info - map view · info · telemetry · weather · raw · status · beacons · messages · bulletins · browse · moving · my account
Callsign, ship name or locator: Clear       
It is possible to search using wildcards (*?) after a prefix. Example: OH*
APRS station M0GGO-9 - show graphs
Map loading...
Comment: 145.500MHz chris from dover
Mic-E message: En route
Location: 51°43.96' N 8°47.71' E - locator JO41JR55KU - show map - static map
2.0 miles Northeast bearing 62° from Paderborn, Regierungsbezirk Detmold, North Rhine-Westphalia, Germany [?]
3.6 miles South bearing 195° from Bad Lippspringe, North Rhine-Westphalia, Germany
59.6 miles East bearing 75° from Dortmund, North Rhine-Westphalia, Germany
78.7 miles East bearing 75° from Essen, North Rhine-Westphalia, Germany
Last position: 2018-10-21 06:20:25 EDT (16h53m ago)
2018-10-21 12:20:25 CEST local time at Paderborn, Germany [?]
Altitude: 456 ft
Course: 262°
Speed: 39 MPH
Device: Yaesu: FTM-400DR (rig)
Last path: M0GGO-9>UQ4SY6 via qAR,DM2HB
Positions stored: 27335
Packet rate: 95 seconds between packets on average during 668 seconds.
Other SSIDs: M0GGO-7
Stations near current position of M0GGO-9 - show more
callsign distance last heard - EDT      callsign distance last heard - EDT
DO1YKL-150.9 miles 157°2018-10-10 04:20:13 DL5YDJ1.2 miles 266°2018-10-17 14:42:47
DL5YDJ-DP1.4 miles 267°2018-10-21 23:00:23 DL5YDJ B1.4 miles 267°2018-10-21 23:11:40
DL5YDJ-B1.4 miles 267°2018-10-21 23:11:50 DL5YDJ-R1.4 miles 267°2018-10-21 23:10:22
DB0PBS-B2.0 miles 215°2018-10-21 22:59:06 DB0PBS B2.0 miles 215°2018-10-21 22:58:56
DB0PBS-R2.0 miles 215°2018-10-21 22:55:41 EL-DB0PBS2.0 miles 215°2018-10-21 22:59:35
DB0PBS-12.0 miles 214°2018-10-21 23:07:11 DL0PS2.1 miles 279°2018-10-20 17:30:38
DO6NIK2.2 miles 276°2018-10-01 03:37:46 DO6NIK-132.4 miles 274°2018-10-21 23:08:10
DG6YES-93.0 miles 271°2018-10-15 06:38:54 DO1BI-53.0 miles 239°2018-10-16 07:13:07
DL5YDJ-73.2 miles 193°2018-10-07 09:32:39 DG9EIS3.2 miles 193°2018-10-21 11:43:21
DG2YGL-94.8 miles 235°2018-10-20 13:04:25 DK8EE5.6 miles 68°2018-10-19 21:23:52
Stations which heard M0GGO-9 directly on radio –
callsign pkts first heard - EDT last heard longest (tx => rx) longest at - EDT
G3OJZ 10 2018-10-01 05:39:29 2018-10-14 07:52:48 JO01PD > JO01OC 4.9 miles 245° 2018-10-14 07:52:48
ON0ABT 5 2018-10-20 04:20:54 2018-10-20 04:35:24 JO11NE > JO11PC 8.8 miles 119° 2018-10-20 04:20:54
DB0KX-2 15 2018-10-20 06:38:23 2018-10-20 07:44:25 JO21VJ > JO31EG 25.2 miles 110° 2018-10-20 06:38:23
DM2HB 11 2018-10-20 08:54:22 2018-10-21 06:20:25 JO41JR > JO41EQ 20.0 miles 258° 2018-10-21 04:38:59
ON7DS 5 2018-10-20 05:28:19 2018-10-20 05:35:26 JO21DE > JO21FD 8.5 miles 121° 2018-10-20 05:28:19
DH5JG 4 2018-10-20 07:42:17 2018-10-20 07:48:27 JO31JK > JO31KJ 3.7 miles 131° 2018-10-20 07:42:17
ON7KB 1 2018-10-20 05:37:28 2018-10-20 05:37:28 JO21FF > JO21EI 8.7 miles 341° 2018-10-20 05:37:28
DB0HAT 13 2018-10-20 08:09:22 2018-10-20 09:00:31 JO41FO > JO31VQ 31.2 miles 281° 2018-10-20 09:00:31
DB0ZV 1 2018-10-20 08:23:31 2018-10-20 08:23:31 JO31TM > JO31RJ 10.6 miles 210° 2018-10-20 08:23:31
DB0DOS-10 5 2018-10-20 08:39:44 2018-10-20 09:30:54 JO41IN > JO42AE 50.5 miles 325° 2018-10-20 09:09:45
DB0FBB 1 2018-10-20 08:11:22 2018-10-20 08:11:22 JO31QL > JO31RM 4.6 miles 63° 2018-10-20 08:11:22
DG7JG-10 1 2018-10-20 07:37:57 2018-10-20 07:37:57 JO31IK > JO31HP 15.3 miles 349° 2018-10-20 07:37:57
DL6PI 7 2018-10-20 08:07:17 2018-10-20 08:22:27 JO31TM > JO31QK 12.6 miles 241° 2018-10-20 08:22:27
PE1RDP-10 6 2018-10-20 06:14:28 2018-10-20 06:24:50 JO21PI > JO21QK 8.3 miles 40° 2018-10-20 06:14:28
PE0FK-10 9 2018-10-20 06:41:31 2018-10-20 06:51:40 JO31BJ > JO21WI 9.9 miles 249° 2018-10-20 06:51:40
ON0AIM 14 2018-10-20 03:53:31 2018-10-20 04:19:52 JO11GB > JO11LF 19.6 miles 53° 2018-10-20 03:53:31
DB0NLH 22 2018-10-20 08:35:40 2018-10-20 09:24:10 JO31WM > JO42DC 43.2 miles 22° 2018-10-20 08:35:40
MB7VB 21 2018-10-05 05:07:11 2018-10-14 11:32:58 JO01OC > JO01QJ 20.8 miles 23° 2018-10-06 06:37:05
F1ZVV 40 2018-10-01 05:47:17 2018-10-20 03:34:29 JO01QE > JO00TR 34.8 miles 160° 2018-10-14 11:26:56
PI1GPS-10 4 2018-10-20 06:12:23 2018-10-20 06:24:51 JO21RJ > JO21OI 12.0 miles 255° 2018-10-20 06:24:51
ON0BS 4 2018-10-20 05:06:48 2018-10-20 05:13:01 JO11WB > JO11XC 5.4 miles 35° 2018-10-20 05:06:48
DG4DAA-13 12 2018-10-20 08:27:32 2018-10-20 08:49:09 JO31UM > JO31XO 12.3 miles 58° 2018-10-20 08:27:32
PD7DNS-10 1 2018-10-20 06:21:47 2018-10-20 06:21:47 JO21RJ > JO21RI 3.2 miles 159° 2018-10-20 06:21:47
DB0BI-10 4 2018-10-20 08:57:25 2018-10-21 06:19:24 JO41FO > JO42FA 29.4 miles 4° 2018-10-20 08:57:25
F1ZKY-1 4 2018-10-20 03:36:36 2018-10-20 03:51:22 JO11GB > JO10EX 7.0 miles 244° 2018-10-20 03:51:22
DB0NA-10 3 2018-10-20 07:52:35 2018-10-20 07:59:09 JO31NL > JO31ML 4.1 miles 259° 2018-10-20 07:59:09
M0LMK 8 2018-10-11 05:34:28 2018-10-14 11:13:36 JO01PD > JO01RI 16.0 miles 24° 2018-10-11 05:41:43
M0LMK-10 1 2018-10-01 05:42:30 2018-10-01 05:42:30 JO01OD > JO01RI 16.3 miles 33° 2018-10-01 05:42:30
ON6CP-10 1 2018-10-20 04:00:01 2018-10-20 04:00:01 JO11IB > JO11KA 9.5 miles 107° 2018-10-20 04:00:01
ON1GPS-10 3 2018-10-20 05:21:12 2018-10-20 05:23:14 JO21CD > JO21BD 2.2 miles 286° 2018-10-20 05:23:14
DB0HSK 2 2018-10-21 06:09:17 2018-10-21 06:14:38 JO41KT > JO41DJ 37.6 miles 220° 2018-10-21 06:09:17
DF4DR 7 2018-10-20 08:17:22 2018-10-20 08:26:31 JO31UM > JO31SM 7.2 miles 269° 2018-10-20 08:26:31

Only position packets which were originated by the station are shown here. The range statistics show some extra long hops, because some digipeaters do not correctly add themselves to the digipeater path. Please check the raw packets.
About this site
This page shows real-time information collected from the Automatic Position Reporting System Internet network (APRS-IS). APRS is used by amateur (ham) radio operators to transmit real-time position information, weather data, telemetry and messages over the radio. A vehicle equipped with a GPS receiver, a VHF transmitter or HF transceiver and a small computer device called a tracker transmits it's location, speed and course in a small data packet, which is then received by a nearby iGate receiving site which forwards the packet on the Internet. Systems connected to the Internet can send information on the APRS-IS without a radio transmitter, or collect and display information transmitted anywhere in the world.
FAQ · Blog · Discussion group · Linking to aprs.fi · AIS sites · Service status · Database statistics · Advertising on aprs.fi · Technical details · API · Change log · Planned changes · Credits and thanks · Terms Of Service · iPhone/iPad APRS